Hamburg Express — DFKM2 — position and weather

sailwx.info

Track history (hours):
 
Tides and Currents Weather Stations Pressure Air Temp Water Temp Dewpoint Dewpoint Depression Visibility Wind Speed Wind Dir Waves Ship Positions

Hamburg Express

Last reported at 2016-Jun-28 06:19 UTC. Time now 2016-Jul-01 20:51 UTC.
Position N 30°32' E 122°37'.

Length 366 m; draft 12.7 m.

Type: Cargo ship. MMSI: 218774000.

Date/timePositionNaut miles runAvg speedWind from/ knotsBaromVisibWave heightAir tempDewpointWater temp
2016-Jun-28 06:19N 30°32' E 122°37'  
2016-Jun-23 18:00N 31°36' E 125°54'21117.6 210 / 191003.1 5.4 23.823.121.6
2016-Jun-23 06:00N 28°42' E 123°36'10217.0 210 / 191006.3 5.4 1.031.224.625.2
2016-Jun-23 00:00N 27°18' E 122°30'10317.1 210 / 171008.810.8 1.031.525.426.6
2016-Jun-22 18:00N 25°54' E 121°24'1315.4 210 / 161007.410.8 1.026.925.927.2
2016-Jun-22 17:07N 25°44' E 121°15'1017.3
2016-Jun-22 16:32N 25°35' E 121°09'1716.6
2016-Jun-22 15:30N 25°21' E 120°57'2316.1
2016-Jun-22 14:04N 25°02' E 120°43'816.4
2016-Jun-22 13:33N 24°55' E 120°38'1717.4
2016-Jun-22 12:33N 24°41' E 120°27'1818.0
2016-Jun-22 11:33N 24°26' E 120°15'1818.4
2016-Jun-22 10:33N 24°11' E 120°04'1817.9
2016-Jun-22 09:33N 23°55' E 119°56'6718.8
2016-Jun-22 06:00N 22°48' E 119°54'716.0 230 / 91009.510.8 31.825.929.2
2016-Jun-22 05:33N 22°44' E 120°01'1716.9
2016-Jun-22 04:33N 22°33' E 120°14'4 4.1
2016-Jun-22 03:30N 22°34' E 120°19'0 0.0
2016-Jun-22 02:12N 22°34' E 120°19'0 0.1
2016-Jun-22 01:30N 22°34' E 120°19'0 0.1
2016-Jun-22 00:30N 22°34' E 120°19'0 0.0
2016-Jun-21 23:24N 22°34' E 120°19'0 0.0
2016-Jun-21 22:30N 22°34' E 120°19'0 0.0
2016-Jun-21 21:30N 22°34' E 120°19'0 0.0
2016-Jun-21 20:30N 22°34' E 120°19'0 0.0
2016-Jun-21 19:30N 22°34' E 120°19'0 0.0
2016-Jun-21 18:30N 22°34' E 120°19'0 0.0
2016-Jun-21 17:24N 22°34' E 120°19'0 0.0
2016-Jun-21 16:30N 22°34' E 120°19'0 0.0
2016-Jun-21 15:24N 22°34' E 120°19'0 0.0
2016-Jun-21 14:30N 22°34' E 120°19'0 0.0
2016-Jun-21 13:33N 22°34' E 120°19'2 2.4
2016-Jun-21 12:34N 22°33' E 120°16'6 6.2
2016-Jun-21 11:34N 22°31' E 120°10'1110.5
2016-Jun-21 10:33N 22°31' E 119°58'6514.3
2016-Jun-21 06:00N 22°24' E 118°48'7212.1 190 / 51010.210.8 32.324.128.8
2016-Jun-21 00:00N 22°18' E 117°30'10016.7 180 / 71010.710.8 0.530.525.828.9
2016-Jun-20 18:00N 22°12' E 115°42'6416.6 200 / 71008.910.8 0.529.125.729.2
2016-Jun-20 14:08N 22°07' E 114°33'1016.7
2016-Jun-20 13:32N 22°06' E 114°22'2411.2
2016-Jun-20 11:26N 22°21' E 114°03'1010.0
2016-Jun-20 10:28N 22°25' E 113°53'2 1.7
2016-Jun-20 09:32N 22°27' E 113°53'0 0.0
2016-Jun-20 08:32N 22°27' E 113°53'0 0.0
2016-Jun-20 07:32N 22°27' E 113°53'0 0.0
2016-Jun-20 06:32N 22°27' E 113°53'0 0.0
2016-Jun-20 05:26N 22°27' E 113°53'0 0.0
2016-Jun-20 04:26N 22°27' E 113°53'0 0.0
2016-Jun-20 03:32N 22°27' E 113°53'0 0.0
2016-Jun-20 02:14N 22°27' E 113°53'0 0.0
2016-Jun-20 01:32N 22°27' E 113°53'0 0.0
2016-Jun-20 00:20N 22°27' E 113°53'0 0.0
2016-Jun-19 23:32N 22°27' E 113°53'0 0.0
2016-Jun-19 22:32N 22°27' E 113°53'0 0.0
2016-Jun-19 21:32N 22°27' E 113°53'0 0.0
2016-Jun-19 20:32N 22°27' E 113°53'0 0.0
2016-Jun-19 19:26N 22°27' E 113°53'0 0.0
2016-Jun-19 18:26N 22°27' E 113°53'0 0.0
2016-Jun-19 17:32N 22°27' E 113°53'0 0.0
2016-Jun-19 16:32N 22°27' E 113°53'0 0.0
2016-Jun-19 15:32N 22°27' E 113°53'1 1.4
2016-Jun-19 14:33N 22°26' E 113°53'1010.4
2016-Jun-19 13:33N 22°21' E 114°03'13017.2
2016-Jun-19 06:00N 20°12' E 113°54'11519.2 060 / 81009.010.8 30.824.729.2
2016-Jun-19 00:00N 18°24' E 113°12'11519.2 999 / 41011.510.8 30.124.729.2
2016-Jun-18 18:00N 16°36' E 112°30'   090 / 111009.710.8 0.529.125.528.9
Track history (hours):
 
Tides and Currents Weather Stations Pressure Air Temp Water Temp Dewpoint Dewpoint Depression Visibility Wind Speed Wind Dir Waves Ship Positions

Hamburg Express

Last reported at 2016-Jun-28 06:19 UTC. Time now 2016-Jul-01 20:51 UTC.
Position N 30°32' E 122°37'.

Length 366 m; draft 12.7 m.

Type: Cargo ship. MMSI: 218774000.

Date/timePositionNaut miles runAvg speedWind from/ knotsBaromVisibWave heightAir tempDewpointWater temp
2016-Jun-28 06:19N 30°32' E 122°37'  
2016-Jun-23 18:00N 31°36' E 125°54'21117.6 210 / 191003.1 5.4 23.823.121.6
2016-Jun-23 06:00N 28°42' E 123°36'10217.0 210 / 191006.3 5.4 1.031.224.625.2
2016-Jun-23 00:00N 27°18' E 122°30'10317.1 210 / 171008.810.8 1.031.525.426.6
2016-Jun-22 18:00N 25°54' E 121°24'1315.4 210 / 161007.410.8 1.026.925.927.2
2016-Jun-22 17:07N 25°44' E 121°15'1017.3
2016-Jun-22 16:32N 25°35' E 121°09'1716.6
2016-Jun-22 15:30N 25°21' E 120°57'2316.1
2016-Jun-22 14:04N 25°02' E 120°43'816.4
2016-Jun-22 13:33N 24°55' E 120°38'1717.4
2016-Jun-22 12:33N 24°41' E 120°27'1818.0
2016-Jun-22 11:33N 24°26' E 120°15'1818.4
2016-Jun-22 10:33N 24°11' E 120°04'1817.9
2016-Jun-22 09:33N 23°55' E 119°56'6718.8
2016-Jun-22 06:00N 22°48' E 119°54'716.0 230 / 91009.510.8 31.825.929.2
2016-Jun-22 05:33N 22°44' E 120°01'1716.9
2016-Jun-22 04:33N 22°33' E 120°14'4 4.1
2016-Jun-22 03:30N 22°34' E 120°19'0 0.0
2016-Jun-22 02:12N 22°34' E 120°19'0 0.1
2016-Jun-22 01:30N 22°34' E 120°19'0 0.1
2016-Jun-22 00:30N 22°34' E 120°19'0 0.0
2016-Jun-21 23:24N 22°34' E 120°19'0 0.0
2016-Jun-21 22:30N 22°34' E 120°19'0 0.0
2016-Jun-21 21:30N 22°34' E 120°19'0 0.0
2016-Jun-21 20:30N 22°34' E 120°19'0 0.0
2016-Jun-21 19:30N 22°34' E 120°19'0 0.0
2016-Jun-21 18:30N 22°34' E 120°19'0 0.0
2016-Jun-21 17:24N 22°34' E 120°19'0 0.0
2016-Jun-21 16:30N 22°34' E 120°19'0 0.0
2016-Jun-21 15:24N 22°34' E 120°19'0 0.0
2016-Jun-21 14:30N 22°34' E 120°19'0 0.0
2016-Jun-21 13:33N 22°34' E 120°19'2 2.4
2016-Jun-21 12:34N 22°33' E 120°16'6 6.2
2016-Jun-21 11:34N 22°31' E 120°10'1110.5
2016-Jun-21 10:33N 22°31' E 119°58'6514.3
2016-Jun-21 06:00N 22°24' E 118°48'7212.1 190 / 51010.210.8 32.324.128.8
2016-Jun-21 00:00N 22°18' E 117°30'10016.7 180 / 71010.710.8 0.530.525.828.9
2016-Jun-20 18:00N 22°12' E 115°42'6416.6 200 / 71008.910.8 0.529.125.729.2
2016-Jun-20 14:08N 22°07' E 114°33'1016.7
2016-Jun-20 13:32N 22°06' E 114°22'2411.2
2016-Jun-20 11:26N 22°21' E 114°03'1010.0
2016-Jun-20 10:28N 22°25' E 113°53'2 1.7
2016-Jun-20 09:32N 22°27' E 113°53'0 0.0
2016-Jun-20 08:32N 22°27' E 113°53'0 0.0
2016-Jun-20 07:32N 22°27' E 113°53'0 0.0
2016-Jun-20 06:32N 22°27' E 113°53'0 0.0
2016-Jun-20 05:26N 22°27' E 113°53'0 0.0
2016-Jun-20 04:26N 22°27' E 113°53'0 0.0
2016-Jun-20 03:32N 22°27' E 113°53'0 0.0
2016-Jun-20 02:14N 22°27' E 113°53'0 0.0
2016-Jun-20 01:32N 22°27' E 113°53'0 0.0
2016-Jun-20 00:20N 22°27' E 113°53'0 0.0
2016-Jun-19 23:32N 22°27' E 113°53'0 0.0
2016-Jun-19 22:32N 22°27' E 113°53'0 0.0
2016-Jun-19 21:32N 22°27' E 113°53'0 0.0
2016-Jun-19 20:32N 22°27' E 113°53'0 0.0
2016-Jun-19 19:26N 22°27' E 113°53'0 0.0
2016-Jun-19 18:26N 22°27' E 113°53'0 0.0
2016-Jun-19 17:32N 22°27' E 113°53'0 0.0
2016-Jun-19 16:32N 22°27' E 113°53'0 0.0
2016-Jun-19 15:32N 22°27' E 113°53'1 1.4
2016-Jun-19 14:33N 22°26' E 113°53'1010.4
2016-Jun-19 13:33N 22°21' E 114°03'13017.2
2016-Jun-19 06:00N 20°12' E 113°54'11519.2 060 / 81009.010.8 30.824.729.2
2016-Jun-19 00:00N 18°24' E 113°12'11519.2 999 / 41011.510.8 30.124.729.2
2016-Jun-18 18:00N 16°36' E 112°30'   090 / 111009.710.8 0.529.125.528.9

Dump ship's entire track history